Accueil
METAR-TAF:

METAR-TAF

Aéroports :

Narathiwat, Thaïlande

latitude: 6-31-12N, longitude: 101-44-36E, altitude: 5 m

Observation

Le bulletin a été fait il y a 8 heures et 31 minutes, à 15:00 UTC
Vent calme
Température 27°C
Humidité 94%
Pression 1007 hPa
Visibilité 10 km ou plus
Quelques nuages à une hauteur de 1800 ft

METAR: VTSC 041500Z 00000KT 9999 FEW018 27/26 Q1007 NOSIG

Heure: 06:31 (23:31 UTC)

Prévision

Le bulletin a été fait il y a 6 heures et 31 minutes, à 17:00 UTC
Prévision valable du 04 à 18 UTC au 05 à 18 UTC
Vent 5 kt de sud/sud-ouest
Visibilité 10 km ou plus
Quelques nuages à une hauteur de 2000 ft
Nuages épars à une hauteur de 10000 ft
Temporairement
du 04 à 18 UTC au 04 à 24 UTC
Visibilité: 5000 m
Nuages épars à une hauteur de 1500 ft
Nuages fragmentés à une hauteur de 10000 ft
pluie

TAF: VTSC 041700Z 0418/0518 20005KT 9999 FEW020 SCT100 TEMPO 0418/0424 5000 RA SCT015 BKN100

Observations et prévisions météorologiques de plus de 4000 aéroports (messages METAR et TAF).

Les stations disponibles sont représentées par des disques jaunes et rouges sur la carte.

Passer la souris dessus pour voir le nom de la station.

Cliquer dessus pour voir les observations et prévisions météorologiques.

Pour changer de carte: cliquez sur les boutons verts avec une croix noire pour zoomer, sur le bouton vert avec un tiret pour effectuer un zoom arrière, ou sur les flèches vertes pour les cartes adjacentes.


METAR-TAF: